Latest Weather Observations for Laverton

IDV60901

Issued at 1:05 pm EST Thursday 28 August 2014 (issued every 10 minutes, with the page automatically refreshed every 10 minutes)

About weather observations | Map of Melbourne area stations | Latest observations for Melbourne area | Other Formats
Station Details ID: 087031 Name: LAVERTON RAAF Lat: -37.86 Lon: 144.76 Height: 20.1 m
Data from the previous 72 hours. | See also: Recent months at Laverton
Date/Time
EST
Tmp

°C
App
Tmp
°C
Dew
Point
°C
Rel
Hum
%
Delta-T

°C
Wind Press
QNH
hPa
Press
MSL
hPa
Rain
since
9 am
mm
Dir
 
Spd
km/h
Gust
km/h
Spd
kts
Gust
kts
28/01:00pm 16.3 14.5 10.8 70 2.9 SE 11 13 6 7 1027.5 1027.5 0.2
28/12:30pm 16.2 14.7 10.7 70 2.9 SE 9 11 5 6 1027.8 1027.8 0.2
28/12:09pm 16.1 15.4 11.5 74 2.5 ESE 6 11 3 6 1028.2 1028.2 0.0
28/12:00pm 15.9 16.6 12.1 78 2.1 CALM 0 0 0 0 1028.2 1028.2 0.0
28/11:30am 14.4 14.4 13.6 95 0.4 SE 6 7 3 4 1028.7 1028.7 0.0
28/11:11am 13.9 13.9 13.7 99 0.1 SE 6 9 3 5 1028.9 1028.9 0.0
28/11:00am 13.3 13.1 13.1 99 0.1 ESE 6 9 3 5 1029.1 1029.1 0.0
28/10:30am 11.8 11.6 11.8 100 0.0 ESE 4 7 2 4 1029.3 1029.3 0.0
28/10:12am 11.3 11.7 11.3 100 0.0 CALM 0 0 0 0 1029.5 1029.5 0.0
28/10:00am 10.4 9.8 10.4 100 0.0 S 4 7 2 4 1029.6 1029.6 0.0
28/09:30am 9.2 8.7 9.2 100 0.0 NNE 2 6 1 3 1029.8 1029.8 0.0
28/09:00am 8.4 6.3 8.3 99 0.0 NNE 9 11 5 6 1029.7 1029.7 0.2
28/08:30am 7.8 5.6 7.7 99 0.0 NNE 9 13 5 7 1029.6 1029.6 0.2
28/08:00am 7.1 4.7 7.0 99 0.0 N 9 11 5 6 1029.6 1029.6 0.2
28/07:30am 6.5 4.3 6.4 99 0.0 N 7 9 4 5 1029.5 1029.5 0.2
28/07:00am 6.2 4.2 6.1 99 0.0 NNE 6 9 3 5 1029.3 1029.3 0.2
28/06:30am 5.3 3.1 5.2 99 0.0 NNE 6 7 3 4 1029.1 1029.1 0.2
28/06:00am 5.5 3.3 5.4 99 0.0 NNE 6 7 3 4 1029.1 1029.1 0.2
28/05:30am 5.3 2.9 5.2 99 0.0 N 7 9 4 5 1028.8 1028.8 0.2
28/05:00am 5.8 3.5 5.7 99 0.0 N 7 9 4 5 1028.8 1028.8 0.2
28/04:30am 6.7 4.2 6.6 99 0.0 NNW 9 11 5 6 1028.7 1028.7 0.2
28/04:00am 7.5 5.6 7.4 99 0.0 N 7 9 4 5 1028.6 1028.6 0.2
28/03:30am 8.2 7.8 8.1 99 0.0 CALM 0 6 0 3 1028.6 1028.6 0.2
28/03:00am 8.3 7.5 8.2 99 0.0 NW 2 7 1 4 1028.7 1028.7 0.2
28/02:30am 8.5 7.0 8.4 99 0.0 WNW 6 7 3 4 1028.9 1028.9 0.2
28/02:00am 8.8 7.8 8.7 99 0.0 W 4 7 2 4 1029.0 1029.0 0.2
28/01:30am 8.8 8.1 8.7 99 0.0 W 2 6 1 3 1029.0 1029.0 0.2
28/01:00am 9.2 8.6 9.1 99 0.0 W 2 9 1 5 1029.1 1029.1 0.2
28/12:30am 9.2 7.9 9.1 99 0.0 W 6 7 3 4 1029.1 1029.1 0.2
28/12:00am 9.2 7.9 9.1 99 0.0 WNW 6 7 3 4 1029.3 1029.3 0.2
 
Date/Time
EST
Tmp

°C
App
Tmp
°C
Dew
Point
°C
Rel
Hum
%
Delta-T

°C
Wind Press
QNH
hPa
Press
MSL
hPa
Rain
since
9 am
mm
Dir
 
Spd
km/h
Gust
km/h
Spd
kts
Gust
kts
27/11:30pm 9.2 7.7 9.1 99 0.0 NW 7 11 4 6 1029.4 1029.4 0.2
27/11:00pm 9.2 7.3 9.1 99 0.0 NNW 9 13 5 7 1029.2 1029.2 0.2
27/10:30pm 9.4 7.6 9.3 99 0.0 N 9 13 5 7 1029.2 1029.2 0.2
27/10:00pm 10.0 8.3 9.9 99 0.0 NW 9 13 5 7 1029.0 1029.0 0.2
27/09:30pm 9.9 7.8 9.8 99 0.1 NW 11 15 6 8 1028.8 1028.8 0.2
27/09:05pm 8.9 6.5 8.8 99 0.0 NW 11 13 6 7 1028.7 1028.7 0.2
27/09:00pm 8.6 6.6 8.5 99 0.0 NW 9 13 5 7 1028.7 1028.7 0.2
27/08:30pm 8.6 6.5 8.3 98 0.1 NW 9 13 5 7 1028.7 1028.7 0.2
27/08:00pm 9.8 9.7 9.5 98 0.1 CALM 0 0 0 0 1028.6 1028.6 0.2
27/07:54pm 10.0 10.0 9.7 98 0.2 CALM 0 0 0 0 1028.6 1028.6 0.2
27/07:30pm 10.2 10.2 9.9 98 0.2 CALM 0 4 0 2 1028.3 1028.3 0.2
27/07:00pm 10.3 8.6 10.0 98 0.2 SSW 9 11 5 6 1028.2 1028.2 0.2
27/06:30pm 10.0 8.6 9.4 96 0.3 S 7 11 4 6 1027.8 1027.8 0.2
27/06:00pm 10.6 8.1 9.7 94 0.4 S 13 17 7 9 1027.7 1027.7 0.2
27/05:45pm 10.7 8.5 9.3 91 0.7 SSE 11 15 6 8 1027.7 1027.7 0.2
27/05:34pm 11.2 8.2 9.3 88 1.0 SSE 15 19 8 10 1027.6 1027.6 0.2
27/05:30pm 11.9 9.0 9.8 87 1.1 SSE 15 19 8 10 1027.6 1027.6 0.2
27/05:00pm 13.1 10.6 9.7 80 1.7 SE 13 19 7 10 1027.4 1027.4 0.2
27/04:30pm 15.3 13.3 10.3 72 2.6 SE 11 15 6 8 1027.1 1027.1 0.2
27/04:00pm 15.5 13.5 10.1 70 2.8 SSE 11 15 6 8 1027.1 1027.1 0.2
27/03:30pm 16.2 14.3 10.5 69 3.0 SE 11 13 6 7 1027.0 1027.0 0.2
27/03:00pm 16.5 14.6 10.6 68 3.1 SE 11 15 6 8 1026.9 1026.9 0.2
27/02:30pm 17.0 14.6 10.1 64 3.6 SSE 13 19 7 10 1027.0 1027.0 0.2
27/02:00pm 17.4 13.8 8.3 55 4.6 S 17 26 9 14 1027.1 1027.1 0.2
27/01:30pm 17.7 15.2 9.8 60 4.2 SE 13 20 7 11 1027.2 1027.2 0.2
27/01:00pm 17.6 15.7 10.5 63 3.8 SSE 11 17 6 9 1027.2 1027.2 0.2
27/12:30pm 17.5 15.4 9.7 60 4.1 SSW 11 13 6 7 1027.7 1027.7 0.0
27/12:00pm 16.7 15.7 11.0 69 3.0 SSW 7 13 4 7 1028.0 1028.0 0.0
27/11:30am 15.7 15.2 10.7 72 2.7 E 4 9 2 5 1028.3 1028.3 0.0
27/11:00am 14.8 14.0 11.2 79 1.9 SSE 6 9 3 5 1028.5 1028.5 0.0
27/10:30am 13.8 13.0 11.7 87 1.1 S 7 9 4 5 1028.7 1028.7 0.0
27/10:00am 12.8 13.5 12.2 96 0.3 CALM 0 6 0 3 1028.6 1028.6 0.0
27/09:30am 11.2 11.2 11.0 99 0.1 NE 2 7 1 4 1028.5 1028.5 0.0
27/09:00am 10.2 8.9 10.0 99 0.1 NNW 7 9 4 5 1028.2 1028.2 0.2
27/08:30am 7.8 6.1 7.7 99 0.0 N 6 7 3 4 1028.3 1028.3 0.2
27/08:00am 5.2 3.3 5.1 99 0.0 N 4 6 2 3 1028.1 1028.1 0.2
27/07:55am 4.9 2.6 4.8 99 0.0 N 6 7 3 4 1028.1 1028.1 0.2
27/07:30am 4.0 1.0 3.9 99 0.0 N 9 9 5 5 1027.9 1027.9 0.2
27/07:18am 4.0 1.5 3.9 99 0.0 NNE 6 7 3 4 1027.9 1027.9 0.2
27/07:14am 4.0 1.5 3.9 99 0.0 NE 6 7 3 4 1027.8 1027.8 0.2
27/07:00am 3.6 1.1 3.5 99 0.0 NNE 6 7 3 4 1027.7 1027.7 0.2
27/06:39am 3.7 1.2 3.6 99 0.0 NNE 6 7 3 4 1027.4 1027.4 0.2
27/06:33am 3.9 1.2 3.8 99 0.0 NNE 7 7 4 4 1027.3 1027.3 0.2
27/06:30am 4.1 1.5 4.0 99 0.0 NNE 7 7 4 4 1027.3 1027.3 0.2
27/06:00am 3.8 1.7 3.7 99 0.0 NNE 4 7 2 4 1027.1 1027.1 0.2
27/05:53am 3.9 1.4 3.8 99 0.0 NNE 6 7 3 4 1027.0 1027.0 0.2
27/05:30am 5.0 2.1 4.9 99 0.0 NNE 9 11 5 6 1027.0 1027.0 0.2
27/05:00am 3.9 2.5 3.8 99 0.0 CALM 0 4 0 2 1027.0 1027.0 0.2
27/04:49am 4.3 2.6 4.2 99 0.0 SW 2 6 1 3 1027.0 1027.0 0.2
27/04:30am 5.0 2.5 4.9 99 0.0 SW 7 9 4 5 1026.9 1026.9 0.2
27/04:00am 4.5 2.1 4.4 99 0.0 SW 6 7 3 4 1026.5 1026.5 0.2
27/03:30am 5.7 3.6 5.6 99 0.0 SW 6 7 3 4 1026.5 1026.5 0.2
27/03:00am 5.1 3.2 5.0 99 0.0 NNW 4 9 2 5 1026.3 1026.3 0.2
27/02:30am 5.7 3.0 5.6 99 0.0 NNW 9 9 5 5 1026.5 1026.5 0.2
27/02:00am 5.1 3.2 5.0 99 0.0 NNW 4 7 2 4 1026.5 1026.5 0.2
27/01:30am 6.5 4.5 6.4 99 0.0 NNW 6 9 3 5 1026.4 1026.4 0.2
27/01:00am 6.4 4.2 6.3 99 0.0 NNW 7 7 4 4 1026.4 1026.4 0.2
27/12:39am 7.3 4.9 7.2 99 0.0 NW 9 11 5 6 1026.3 1026.3 0.2
27/12:30am 7.4 4.7 7.3 99 0.0 NW 11 13 6 7 1026.3 1026.3 0.2
27/12:00am 8.2 5.7 8.1 99 0.0 NW 11 15 6 8 1026.4 1026.4 0.2
 
Date/Time
EST
Tmp

°C
App
Tmp
°C
Dew
Point
°C
Rel
Hum
%
Delta-T

°C
Wind Press
QNH
hPa
Press
MSL
hPa
Rain
since
9 am
mm
Dir
 
Spd
km/h
Gust
km/h
Spd
kts
Gust
kts
26/11:30pm 9.6 7.4 9.5 99 0.0 NW 11 15 6 8 1026.3 1026.3 0.2
26/11:00pm 9.4 6.8 9.3 99 0.0 WNW 13 15 7 8 1026.3 1026.3 0.2
26/10:36pm 8.6 5.8 8.5 99 0.0 NW 13 15 7 8 1026.6 1026.6 0.2
26/10:30pm 8.5 5.7 8.4 99 0.0 WNW 13 15 7 8 1026.5 1026.5 0.2
26/10:05pm 8.1 5.1 7.7 97 0.2 NW 13 15 7 8 1026.5 1026.5 0.2
26/10:00pm 8.3 5.3 7.9 97 0.2 NW 13 17 7 9 1026.5 1026.5 0.2
26/09:48pm 8.8 6.0 8.4 97 0.2 NW 13 17 7 9 1026.5 1026.5 0.2
26/09:30pm 9.2 6.4 8.6 96 0.3 WNW 13 17 7 9 1026.5 1026.5 0.2
26/09:03pm 9.7 7.8 9.1 96 0.3 W 9 13 5 7 1026.5 1026.5 0.2
26/09:00pm 9.7 7.8 9.1 96 0.3 W 9 13 5 7 1026.5 1026.5 0.2
26/08:30pm 9.6 7.2 8.7 94 0.4 WNW 11 13 6 7 1026.6 1026.6 0.2
26/08:00pm 10.6 8.4 9.4 92 0.6 WNW 11 13 6 7 1026.3 1026.3 0.2
26/07:30pm 12.3 10.9 10.9 91 0.7 W 9 13 5 7 1026.3 1026.3 0.2
26/07:00pm 12.7 11.4 11.1 90 0.8 WSW 9 9 5 5 1026.1 1026.1 0.2
26/06:30pm 13.0 11.6 10.9 87 1.1 SW 9 11 5 6 1025.9 1025.9 0.2
26/06:00pm 13.8 12.0 11.0 83 1.5 SW 11 17 6 9 1025.7 1025.7 0.2
26/05:30pm 14.9 12.4 10.9 77 2.1 SSW 15 19 8 10 1025.6 1025.6 0.2
26/05:00pm 15.2 12.5 10.2 72 2.6 S 15 19 8 10 1025.5 1025.5 0.2
26/04:30pm 15.6 12.8 9.9 69 3.0 S 15 19 8 10 1025.4 1025.4 0.2
26/04:00pm 16.1 13.7 10.2 68 3.1 S 13 20 7 11 1025.5 1025.5 0.2
26/03:30pm 16.6 14.2 10.0 65 3.5 SSE 13 19 7 10 1025.5 1025.5 0.2
26/03:00pm 16.8 14.5 10.4 66 3.4 SE 13 19 7 10 1025.5 1025.5 0.2
26/02:30pm 16.8 14.2 9.5 62 3.8 SE 13 17 7 9 1025.7 1025.7 0.2
26/02:00pm 16.5 14.6 9.0 61 3.8 ESE 9 15 5 8 1026.0 1026.0 0.2
26/01:30pm 16.4 15.0 9.6 64 3.5 NNW 7 11 4 6 1026.2 1026.2 0.0
26/01:00pm 15.9 14.8 10.0 68 3.1 E 6 7 3 4 1026.7 1026.7 0.0
26/12:30pm 15.3 14.3 10.3 72 2.6 NW 6 9 3 5 1027.2 1027.2 0.0
26/12:00pm 14.0 12.4 10.2 78 2.0 WNW 9 17 5 9 1027.5 1027.5 0.0
26/11:00am 11.6 11.0 10.3 92 0.7 S 4 9 2 5 1028.3 1028.3 0.0
26/10:57am 11.4 10.4 10.3 93 0.6 S 6 9 3 5 1028.3 1028.3 0.0
26/10:30am 10.9 10.6 10.1 95 0.4 NW 2 6 1 3 1028.5 1028.5 0.0
26/10:00am 10.0 8.6 9.4 96 0.3 NNW 7 9 4 5 1028.5 1028.5 0.0
26/09:30am 10.0 8.2 9.5 97 0.2 NE 9 11 5 6 1028.6 1028.6 0.0
26/09:09am 9.8 8.0 9.3 97 0.2 ESE 9 11 5 6 1028.6 1028.6 0.0
26/09:07am 9.9 8.1 9.6 98 0.1 ESE 9 11 5 6 1028.6 1028.6 0.0
26/09:00am 9.8 8.0 9.5 98 0.1 E 9 11 5 6 1028.6 1028.6 0.2
26/08:31am 9.9 7.4 9.6 98 0.1 E 13 19 7 10 1028.5 1028.5 0.2
26/08:30am 9.9 7.4 9.6 98 0.1 E 13 19 7 10 1028.5 1028.5 0.2
26/08:27am 9.8 6.9 9.5 98 0.1 E 15 19 8 10 1028.5 1028.5 0.2
26/08:00am 9.7 7.2 9.6 99 0.0 ESE 13 20 7 11 1028.5 1028.5 0.2
26/07:53am 9.6 7.0 9.5 99 0.0 ESE 13 19 7 10 1028.5 1028.5 0.2
26/07:30am 10.0 7.6 9.9 99 0.1 SE 13 17 7 9 1028.3 1028.3 0.2
26/07:00am 10.0 8.3 9.9 99 0.0 SSE 9 17 5 9 1028.2 1028.2 0.2
26/06:50am 9.6 8.4 9.5 99 0.0 S 6 7 3 4 1028.1 1028.1 0.2
26/06:30am 8.7 7.1 8.6 99 0.0 SSE 7 9 4 5 1027.9 1027.9 0.2
26/06:06am 9.2 7.9 9.1 99 0.0 SE 6 7 3 4 1027.7 1027.7 0.2
26/06:00am 9.3 8.0 9.2 99 0.0 SE 6 9 3 5 1027.7 1027.7 0.2
26/05:30am 9.2 7.7 9.1 99 0.0 SSE 7 11 4 6 1027.4 1027.4 0.2
26/05:00am 7.7 6.0 7.4 98 0.1 WSW 6 7 3 4 1027.5 1027.5 0.2
26/04:41am 8.0 6.2 7.9 99 0.0 S 7 11 4 6 1027.4 1027.4 0.2
26/04:30am 7.2 5.2 6.9 98 0.1 SW 7 9 4 5 1027.4 1027.4 0.2
26/04:12am 6.7 4.2 6.4 98 0.1 SSW 9 9 5 5 1027.4 1027.4 0.2
26/04:00am 6.9 4.8 6.6 98 0.1 S 7 9 4 5 1027.5 1027.5 0.2
26/03:37am 6.3 4.0 5.7 96 0.3 S 7 11 4 6 1027.6 1027.6 0.2
26/03:30am 7.9 6.0 7.5 97 0.2 S 7 11 4 6 1027.7 1027.7 0.2
26/03:07am 7.9 6.0 7.6 98 0.1 WSW 7 11 4 6 1027.9 1027.9 0.2
26/03:00am 7.0 4.5 6.6 97 0.2 W 9 11 5 6 1027.9 1027.9 0.2
26/02:39am 6.9 4.9 6.2 95 0.3 WSW 6 9 3 5 1028.1 1028.1 0.2
26/02:30am 9.6 8.1 9.1 97 0.2 SE 7 11 4 6 1028.1 1028.1 0.2
26/02:00am 9.8 8.3 9.2 96 0.3 SSE 7 13 4 7 1028.4 1028.4 0.2
26/01:30am 10.0 8.2 9.4 96 0.3 S 9 13 5 7 1028.6 1028.6 0.2
26/01:00am 10.4 7.9 9.8 96 0.3 SSE 13 19 7 10 1028.7 1028.7 0.2
26/12:30am 10.4 7.5 9.8 96 0.3 SSE 15 19 8 10 1028.6 1028.6 0.2
26/12:00am 10.1 7.5 9.5 96 0.3 S 13 17 7 9 1028.6 1028.6 0.2
 
Date/Time
EST
Tmp

°C
App
Tmp
°C
Dew
Point
°C
Rel
Hum
%
Delta-T

°C
Wind Press
QNH
hPa
Press
MSL
hPa
Rain
since
9 am
mm
Dir
 
Spd
km/h
Gust
km/h
Spd
kts
Gust
kts
25/11:30pm 10.0 8.1 9.2 95 0.4 S 9 13 5 7 1028.8 1028.8 0.2
25/11:11pm 10.2 8.0 9.4 95 0.4 S 11 13 6 7 1028.8 1028.8 0.2
25/11:00pm 10.3 7.7 9.5 95 0.4 S 13 17 7 9 1028.7 1028.7 0.2
25/10:31pm 10.4 8.3 9.6 95 0.4 SSW 11 13 6 7 1029.0 1029.0 0.2
25/10:30pm 10.4 8.3 9.6 95 0.4 SSW 11 13 6 7 1029.0 1029.0 0.2
25/10:00pm 10.0 8.1 8.9 93 0.5 SW 9 11 5 6 1028.8 1028.8 0.2
25/09:30pm 10.8 9.4 9.7 93 0.6 S 7 13 4 7 1029.0 1029.0 0.2
25/09:00pm 10.8 8.7 9.6 92 0.6 S 11 15 6 8 1028.9 1028.9 0.2
25/08:30pm 11.2 8.3 9.6 90 0.8 SSE 15 19 8 10 1028.7 1028.7 0.2
25/08:00pm 11.2 8.3 9.5 89 0.8 S 15 20 8 11 1028.5 1028.5 0.2
25/07:30pm 11.6 8.7 9.5 87 1.1 SSE 15 22 8 12 1028.3 1028.3 0.2
25/07:00pm 11.7 8.3 9.3 85 1.2 SSE 17 24 9 13 1028.3 1028.3 0.2
25/06:30pm 12.1 8.1 8.9 81 1.6 SSE 20 28 11 15 1027.9 1027.9 0.2
25/06:00pm 12.8 8.4 8.9 77 1.9 S 22 30 12 16 1027.6 1027.6 0.2
25/05:30pm 12.5 8.8 9.3 81 1.6 S 19 28 10 15 1027.3 1027.3 0.2
25/05:00pm 13.3 9.6 9.5 78 1.9 S 19 26 10 14 1026.9 1026.9 0.2
25/04:30pm 13.6 9.6 9.1 74 2.3 S 20 30 11 16 1026.8 1026.8 0.2
25/04:00pm 13.9 9.3 9.5 75 2.2 SSE 24 32 13 17 1026.6 1026.6 0.2
25/03:30pm 14.1 10.3 9.7 75 2.3 SSE 20 30 11 16 1026.6 1026.6 0.2
25/03:00pm 14.1 9.5 9.7 75 2.3 SSE 24 35 13 19 1026.5 1026.5 0.2
25/02:30pm 14.2 9.6 9.6 74 2.4 SSE 24 35 13 19 1026.4 1026.4 0.2
25/02:00pm 14.2 10.1 10.0 76 2.2 SSE 22 33 12 18 1026.4 1026.4 0.2
25/01:47pm 14.0 10.4 10.4 79 1.9 SSE 20 28 11 15 1026.4 1026.4 0.2
25/01:30pm 13.2 9.4 9.8 80 1.7 SSE 20 30 11 16 1026.5 1026.5 0.2
25/01:26pm 13.4 9.2 9.8 79 1.8 SSE 22 30 12 16 1026.5 1026.5 0.2

Latest Capital City Observations: Canberra | Sydney | Melbourne | Brisbane | Adelaide | Perth | Hobart | Darwin

Other Formats:

Comma delimited format used in spreadsheet applications
http://www.bom.gov.au/fwo/IDV60901/IDV60901.94865.axf

JavaScript Object Notation format (JSON) in row-major order
http://www.bom.gov.au/fwo/IDV60901/IDV60901.94865.json